sensor_id;sensor_type;location;lat;lon;timestamp;pressure;altitude;pressure_sealevel;temperature;humidity
55442;BME280;41313;58.740;50.174;2022-07-22T00:00:42;99693.25;;;21.86;52.93
55442;BME280;41313;58.740;50.174;2022-07-22T00:05:43;99687.22;;;21.68;53.57
55442;BME280;41313;58.740;50.174;2022-07-22T00:10:45;99686.56;;;21.66;53.38
55442;BME280;41313;58.740;50.174;2022-07-22T00:15:46;99687.91;;;21.70;52.97
55442;BME280;41313;58.740;50.174;2022-07-22T00:20:48;99696.41;;;21.65;53.38
55442;BME280;41313;58.740;50.174;2022-07-22T00:25:49;99661.72;;;21.31;53.38
55442;BME280;41313;58.740;50.174;2022-07-22T00:30:50;99686.66;;;21.39;53.49
55442;BME280;41313;58.740;50.174;2022-07-22T00:35:52;99677.63;;;21.41;53.25
55442;BME280;41313;58.740;50.174;2022-07-22T00:40:54;99687.53;;;21.48;53.31
55442;BME280;41313;58.740;50.174;2022-07-22T00:45:55;99690.91;;;21.67;52.72
55442;BME280;41313;58.740;50.174;2022-07-22T00:50:57;99698.59;;;21.70;52.97
55442;BME280;41313;58.740;50.174;2022-07-22T00:55:59;99701.44;;;21.76;52.64
55442;BME280;41313;58.740;50.174;2022-07-22T01:01:01;99702.81;;;21.80;52.65
55442;BME280;41313;58.740;50.174;2022-07-22T01:06:03;99692.09;;;21.89;52.89
55442;BME280;41313;58.740;50.174;2022-07-22T01:11:09;99685.59;;;21.75;53.00
55442;BME280;41313;58.740;50.174;2022-07-22T01:16:13;99701.47;;;22.01;52.72
55442;BME280;41313;58.740;50.174;2022-07-22T01:21:16;99705.03;;;22.18;52.80
55442;BME280;41313;58.740;50.174;2022-07-22T01:26:17;99700.69;;;22.17;52.99
55442;BME280;41313;58.740;50.174;2022-07-22T01:31:19;99705.31;;;22.06;52.98
55442;BME280;41313;58.740;50.174;2022-07-22T01:36:21;99711.06;;;22.52;52.42
55442;BME280;41313;58.740;50.174;2022-07-22T01:41:23;99716.03;;;22.72;52.02
55442;BME280;41313;58.740;50.174;2022-07-22T01:46:24;99684.69;;;22.81;51.96
55442;BME280;41313;58.740;50.174;2022-07-22T01:51:26;99703.88;;;23.17;52.09
55442;BME280;41313;58.740;50.174;2022-07-22T01:56:27;99719.91;;;23.33;51.74
55442;BME280;41313;58.740;50.174;2022-07-22T02:01:28;99702.41;;;23.46;51.90
55442;BME280;41313;58.740;50.174;2022-07-22T02:06:30;99688.97;;;23.54;51.68
55442;BME280;41313;58.740;50.174;2022-07-22T02:11:33;99721.47;;;23.59;51.72
55442;BME280;41313;58.740;50.174;2022-07-22T02:16:35;99717.38;;;23.71;51.32
55442;BME280;41313;58.740;50.174;2022-07-22T02:21:39;99710.59;;;23.83;51.42
55442;BME280;41313;58.740;50.174;2022-07-22T02:26:41;99719.25;;;23.94;51.23
55442;BME280;41313;58.740;50.174;2022-07-22T02:31:47;99725.06;;;23.97;51.39
55442;BME280;41313;58.740;50.174;2022-07-22T02:36:49;99721.25;;;24.38;51.28
55442;BME280;41313;58.740;50.174;2022-07-22T02:41:50;99717.16;;;24.50;51.05
55442;BME280;41313;58.740;50.174;2022-07-22T02:46:52;99721.06;;;24.62;50.76
55442;BME280;41313;58.740;50.174;2022-07-22T02:52:02;99716.16;;;24.66;51.01
55442;BME280;41313;58.740;50.174;2022-07-22T02:57:03;99720.72;;;24.95;50.39
55442;BME280;41313;58.740;50.174;2022-07-22T03:02:05;99723.16;;;24.90;50.31
55442;BME280;41313;58.740;50.174;2022-07-22T03:07:07;99723.72;;;25.30;50.03
55442;BME280;41313;58.740;50.174;2022-07-22T03:12:08;99724.34;;;25.46;49.58
55442;BME280;41313;58.740;50.174;2022-07-22T03:17:10;99718.78;;;25.33;49.66
55442;BME280;41313;58.740;50.174;2022-07-22T03:22:13;99714.69;;;25.52;49.42
55442;BME280;41313;58.740;50.174;2022-07-22T03:27:14;99701.94;;;25.61;49.09
55442;BME280;41313;58.740;50.174;2022-07-22T03:32:16;99704.25;;;26.00;48.33
55442;BME280;41313;58.740;50.174;2022-07-22T03:37:21;99711.81;;;26.11;48.48
55442;BME280;41313;58.740;50.174;2022-07-22T03:42:23;99708.25;;;26.32;48.18
55442;BME280;41313;58.740;50.174;2022-07-22T03:47:25;99711.63;;;26.41;48.09
55442;BME280;41313;58.740;50.174;2022-07-22T03:52:28;99708.41;;;26.74;47.34
55442;BME280;41313;58.740;50.174;2022-07-22T03:57:30;99673.53;;;26.44;47.60
55442;BME280;41313;58.740;50.174;2022-07-22T04:02:38;99707.16;;;27.04;47.17
55442;BME280;41313;58.740;50.174;2022-07-22T04:07:40;99707.72;;;27.28;46.44
55442;BME280;41313;58.740;50.174;2022-07-22T04:12:42;99702.81;;;27.52;46.47
55442;BME280;41313;58.740;50.174;2022-07-22T04:17:49;99699.56;;;27.69;46.14
55442;BME280;41313;58.740;50.174;2022-07-22T04:22:51;99680.84;;;27.68;46.41
55442;BME280;41313;58.740;50.174;2022-07-22T04:27:52;99685.69;;;27.92;45.58
55442;BME280;41313;58.740;50.174;2022-07-22T04:32:54;99686.97;;;28.03;45.30
55442;BME280;41313;58.740;50.174;2022-07-22T04:37:55;99694.88;;;28.18;45.04
55442;BME280;41313;58.740;50.174;2022-07-22T04:42:58;99691.13;;;28.39;45.23
55442;BME280;41313;58.740;50.174;2022-07-22T04:47:59;99693.84;;;28.46;44.85
55442;BME280;41313;58.740;50.174;2022-07-22T04:53:01;99699.66;;;28.49;44.17
55442;BME280;41313;58.740;50.174;2022-07-22T04:58:03;99704.25;;;28.62;44.06
55442;BME280;41313;58.740;50.174;2022-07-22T05:03:05;99702.56;;;28.61;43.61
55442;BME280;41313;58.740;50.174;2022-07-22T05:08:06;99701.72;;;28.80;43.78
55442;BME280;41313;58.740;50.174;2022-07-22T05:13:09;99698.78;;;29.02;43.63
55442;BME280;41313;58.740;50.174;2022-07-22T05:18:13;99689.78;;;29.15;43.66
55442;BME280;41313;58.740;50.174;2022-07-22T05:23:15;99690.06;;;28.87;43.22
55442;BME280;41313;58.740;50.174;2022-07-22T05:28:17;99663.06;;;28.67;43.94
55442;BME280;41313;58.740;50.174;2022-07-22T05:33:21;99660.53;;;28.78;43.22
55442;BME280;41313;58.740;50.174;2022-07-22T05:38:38;99685.75;;;29.37;42.68
55442;BME280;41313;58.740;50.174;2022-07-22T05:43:40;99668.84;;;29.48;42.99
55442;BME280;41313;58.740;50.174;2022-07-22T05:48:43;99671.44;;;29.68;42.40
55442;BME280;41313;58.740;50.174;2022-07-22T05:53:46;99682.66;;;29.79;42.11
55442;BME280;41313;58.740;50.174;2022-07-22T05:58:47;99674.47;;;29.85;42.19
55442;BME280;41313;58.740;50.174;2022-07-22T08:14:04;99617.16;;;30.82;40.37
55442;BME280;41313;58.740;50.174;2022-07-22T08:19:13;99621.16;;;31.28;40.03
55442;BME280;41313;58.740;50.174;2022-07-22T08:24:15;99613.03;;;31.58;38.52
55442;BME280;41313;58.740;50.174;2022-07-22T08:29:16;99582.91;;;31.90;38.46
55442;BME280;41313;58.740;50.174;2022-07-22T08:34:18;99618.56;;;31.93;38.39
55442;BME280;41313;58.740;50.174;2022-07-22T08:39:20;99623.75;;;31.83;36.81
55442;BME280;41313;58.740;50.174;2022-07-22T08:44:22;99601.16;;;31.83;37.21
55442;BME280;41313;58.740;50.174;2022-07-22T08:49:23;99608.72;;;31.81;37.53
55442;BME280;41313;58.740;50.174;2022-07-22T08:54:28;99605.66;;;31.89;37.95
55442;BME280;41313;58.740;50.174;2022-07-22T08:59:32;99594.66;;;31.72;37.28
55442;BME280;41313;58.740;50.174;2022-07-22T09:04:58;99605.50;;;32.26;37.44
55442;BME280;41313;58.740;50.174;2022-07-22T09:10:00;99573.09;;;32.24;37.15
55442;BME280;41313;58.740;50.174;2022-07-22T09:15:33;99593.22;;;32.47;36.90
55442;BME280;41313;58.740;50.174;2022-07-22T09:21:00;99600.03;;;32.73;36.98
55442;BME280;41313;58.740;50.174;2022-07-22T09:26:33;99587.56;;;32.88;36.50
55442;BME280;41313;58.740;50.174;2022-07-22T09:32:13;99585.81;;;32.82;35.03
55442;BME280;41313;58.740;50.174;2022-07-22T09:37:34;99555.75;;;32.89;36.03
55442;BME280;41313;58.740;50.174;2022-07-22T09:42:51;99571.38;;;33.22;35.40
55442;BME280;41313;58.740;50.174;2022-07-22T09:47:56;99561.06;;;33.53;35.12
55442;BME280;41313;58.740;50.174;2022-07-22T09:53:27;99555.28;;;33.83;34.82
55442;BME280;41313;58.740;50.174;2022-07-22T09:58:41;99558.41;;;33.58;34.11
55442;BME280;41313;58.740;50.174;2022-07-22T10:03:51;99558.22;;;33.48;34.54
55442;BME280;41313;58.740;50.174;2022-07-22T10:08:56;99556.88;;;33.33;34.40
55442;BME280;41313;58.740;50.174;2022-07-22T10:13:58;99539.75;;;33.67;34.22
55442;BME280;41313;58.740;50.174;2022-07-22T10:19:01;99542.00;;;33.87;34.64
55442;BME280;41313;58.740;50.174;2022-07-22T10:24:09;99528.69;;;33.90;34.97
55442;BME280;41313;58.740;50.174;2022-07-22T10:29:32;99533.63;;;33.43;34.46
55442;BME280;41313;58.740;50.174;2022-07-22T10:34:39;99529.97;;;33.20;35.35
55442;BME280;41313;58.740;50.174;2022-07-22T10:40:19;99514.09;;;33.00;35.83
55442;BME280;41313;58.740;50.174;2022-07-22T10:45:23;99499.28;;;33.08;34.72
55442;BME280;41313;58.740;50.174;2022-07-22T10:56:06;99500.41;;;33.74;33.81
55442;BME280;41313;58.740;50.174;2022-07-22T11:01:13;99495.69;;;33.70;35.09
55442;BME280;41313;58.740;50.174;2022-07-22T11:11:41;99453.91;;;33.13;35.61
55442;BME280;41313;58.740;50.174;2022-07-22T11:16:45;99482.06;;;32.90;36.36
55442;BME280;41313;58.740;50.174;2022-07-22T11:21:50;99487.19;;;32.23;35.52
55442;BME280;41313;58.740;50.174;2022-07-22T11:26:55;99547.66;;;30.99;40.13
55442;BME280;41313;58.740;50.174;2022-07-22T11:31:58;99571.75;;;29.90;43.79
55442;BME280;41313;58.740;50.174;2022-07-22T11:37:00;99626.13;;;29.19;44.54
55442;BME280;41313;58.740;50.174;2022-07-22T11:42:03;99658.50;;;28.60;46.34
55442;BME280;41313;58.740;50.174;2022-07-22T11:47:06;99673.28;;;28.11;47.29
55442;BME280;41313;58.740;50.174;2022-07-22T11:52:09;99653.72;;;27.89;47.11
55442;BME280;41313;58.740;50.174;2022-07-22T11:57:14;99637.72;;;27.94;46.68
55442;BME280;41313;58.740;50.174;2022-07-22T12:02:16;99649.56;;;27.87;46.72
55442;BME280;41313;58.740;50.174;2022-07-22T12:07:18;99621.94;;;27.91;47.66
55442;BME280;41313;58.740;50.174;2022-07-22T12:12:38;99625.88;;;28.35;47.45
55442;BME280;41313;58.740;50.174;2022-07-22T12:17:41;99611.97;;;28.45;46.29
55442;BME280;41313;58.740;50.174;2022-07-22T12:22:46;99617.34;;;28.38;46.21
55442;BME280;41313;58.740;50.174;2022-07-22T12:28:00;99614.84;;;28.63;46.13
55442;BME280;41313;58.740;50.174;2022-07-22T12:33:02;99598.50;;;28.97;45.89
55442;BME280;41313;58.740;50.174;2022-07-22T12:38:08;99571.25;;;29.05;45.47
55442;BME280;41313;58.740;50.174;2022-07-22T12:43:10;99575.88;;;29.29;44.61
55442;BME280;41313;58.740;50.174;2022-07-22T12:48:12;99552.47;;;29.48;43.28
55442;BME280;41313;58.740;50.174;2022-07-22T12:53:15;99553.28;;;29.49;43.96
55442;BME280;41313;58.740;50.174;2022-07-22T12:58:18;99521.44;;;29.19;43.02
55442;BME280;41313;58.740;50.174;2022-07-22T13:03:21;99547.50;;;29.39;43.59
55442;BME280;41313;58.740;50.174;2022-07-22T13:08:29;99517.09;;;29.43;43.05
55442;BME280;41313;58.740;50.174;2022-07-22T13:13:31;99554.88;;;29.63;42.46
55442;BME280;41313;58.740;50.174;2022-07-22T13:18:32;99541.78;;;29.85;41.78
55442;BME280;41313;58.740;50.174;2022-07-22T13:23:34;99539.44;;;29.89;41.74
55442;BME280;41313;58.740;50.174;2022-07-22T13:28:36;99544.16;;;30.18;41.29
55442;BME280;41313;58.740;50.174;2022-07-22T13:33:37;99537.47;;;30.46;41.36
55442;BME280;41313;58.740;50.174;2022-07-22T13:38:39;99534.19;;;30.74;40.83
55442;BME280;41313;58.740;50.174;2022-07-22T13:43:40;99526.34;;;31.03;40.72
55442;BME280;41313;58.740;50.174;2022-07-22T13:48:43;99508.69;;;30.82;40.42
55442;BME280;41313;58.740;50.174;2022-07-22T13:53:45;99530.47;;;31.05;40.03
55442;BME280;41313;58.740;50.174;2022-07-22T13:58:47;99517.28;;;31.09;40.29
55442;BME280;41313;58.740;50.174;2022-07-22T14:03:48;99520.72;;;31.16;40.72
55442;BME280;41313;58.740;50.174;2022-07-22T14:08:50;99523.09;;;31.24;40.40
55442;BME280;41313;58.740;50.174;2022-07-22T14:13:51;99495.06;;;31.00;40.10
55442;BME280;41313;58.740;50.174;2022-07-22T14:18:52;99502.75;;;31.03;40.88
55442;BME280;41313;58.740;50.174;2022-07-22T14:23:54;99453.25;;;30.59;41.88
55442;BME280;41313;58.740;50.174;2022-07-22T14:28:55;99535.88;;;31.05;41.89
55442;BME280;41313;58.740;50.174;2022-07-22T14:33:57;99501.22;;;31.07;41.57
55442;BME280;41313;58.740;50.174;2022-07-22T14:38:59;99510.56;;;31.12;42.42
55442;BME280;41313;58.740;50.174;2022-07-22T14:44:02;99519.53;;;31.12;42.63
55442;BME280;41313;58.740;50.174;2022-07-22T14:49:03;99521.28;;;31.06;42.92
55442;BME280;41313;58.740;50.174;2022-07-22T14:54:05;99513.66;;;30.85;43.29
55442;BME280;41313;58.740;50.174;2022-07-22T14:59:09;99506.88;;;30.76;43.83
55442;BME280;41313;58.740;50.174;2022-07-22T15:04:11;99510.47;;;30.88;43.35
55442;BME280;41313;58.740;50.174;2022-07-22T15:09:13;99508.22;;;30.85;43.52
55442;BME280;41313;58.740;50.174;2022-07-22T15:14:14;99508.22;;;30.85;43.77
55442;BME280;41313;58.740;50.174;2022-07-22T15:19:16;99521.47;;;30.75;44.40
55442;BME280;41313;58.740;50.174;2022-07-22T15:24:17;99528.97;;;30.73;44.37
55442;BME280;41313;58.740;50.174;2022-07-22T15:29:19;99523.44;;;30.68;44.90
55442;BME280;41313;58.740;50.174;2022-07-22T15:34:21;99502.53;;;30.38;45.17
55442;BME280;41313;58.740;50.174;2022-07-22T15:39:22;99503.19;;;30.52;44.63
55442;BME280;41313;58.740;50.174;2022-07-22T15:44:24;99491.06;;;30.17;45.26
55442;BME280;41313;58.740;50.174;2022-07-22T15:49:25;99514.28;;;30.32;45.56
55442;BME280;41313;58.740;50.174;2022-07-22T15:54:27;99507.44;;;30.04;46.19
55442;BME280;41313;58.740;50.174;2022-07-22T15:59:29;99512.69;;;29.81;46.99
55442;BME280;41313;58.740;50.174;2022-07-22T16:04:33;99491.06;;;29.74;46.63
55442;BME280;41313;58.740;50.174;2022-07-22T16:09:35;99515.97;;;29.83;46.74
55442;BME280;41313;58.740;50.174;2022-07-22T16:14:36;99519.38;;;29.78;46.61
55442;BME280;41313;58.740;50.174;2022-07-22T16:19:38;99515.72;;;29.59;47.61
55442;BME280;41313;58.740;50.174;2022-07-22T16:24:39;99524.72;;;29.53;47.50
55442;BME280;41313;58.740;50.174;2022-07-22T16:29:41;99491.00;;;29.30;47.92
55442;BME280;41313;58.740;50.174;2022-07-22T16:34:42;99511.69;;;29.18;48.13
55442;BME280;41313;58.740;50.174;2022-07-22T16:39:44;99522.50;;;29.18;48.35
55442;BME280;41313;58.740;50.174;2022-07-22T16:44:45;99523.56;;;29.11;48.25
55442;BME280;41313;58.740;50.174;2022-07-22T16:49:47;99521.38;;;28.88;48.64
55442;BME280;41313;58.740;50.174;2022-07-22T16:54:49;99521.25;;;28.69;48.97
55442;BME280;41313;58.740;50.174;2022-07-22T16:59:51;99535.84;;;28.55;49.29
55442;BME280;41313;58.740;50.174;2022-07-22T17:04:52;99520.53;;;28.35;49.71
55442;BME280;41313;58.740;50.174;2022-07-22T17:09:54;99530.34;;;28.10;50.38
55442;BME280;41313;58.740;50.174;2022-07-22T17:14:55;99496.72;;;27.92;50.35
55442;BME280;41313;58.740;50.174;2022-07-22T17:19:57;99533.47;;;28.00;50.26
55442;BME280;41313;58.740;50.174;2022-07-22T17:24:59;99522.50;;;27.82;50.89
55442;BME280;41313;58.740;50.174;2022-07-22T17:30:00;99528.47;;;27.50;51.11
55442;BME280;41313;58.740;50.174;2022-07-22T17:35:02;99528.88;;;27.47;50.76
55442;BME280;41313;58.740;50.174;2022-07-22T17:40:04;99539.66;;;27.34;51.79
55442;BME280;41313;58.740;50.174;2022-07-22T17:45:07;99536.53;;;27.24;51.34
55442;BME280;41313;58.740;50.174;2022-07-22T17:50:09;99513.38;;;26.88;51.69
55442;BME280;41313;58.740;50.174;2022-07-22T17:55:10;99538.25;;;26.84;51.62
55442;BME280;41313;58.740;50.174;2022-07-22T18:00:12;99536.56;;;26.76;51.60
55442;BME280;41313;58.740;50.174;2022-07-22T18:05:15;99544.34;;;26.57;52.32
55442;BME280;41313;58.740;50.174;2022-07-22T18:10:16;99530.16;;;26.42;52.34
55442;BME280;41313;58.740;50.174;2022-07-22T18:15:18;99538.81;;;26.37;52.50
55442;BME280;41313;58.740;50.174;2022-07-22T18:20:20;99518.44;;;26.22;52.78
55442;BME280;41313;58.740;50.174;2022-07-22T18:25:22;99526.44;;;26.08;52.60
55442;BME280;41313;58.740;50.174;2022-07-22T18:30:24;99534.50;;;26.08;52.99
55442;BME280;41313;58.740;50.174;2022-07-22T18:35:25;99510.16;;;25.88;53.01
55442;BME280;41313;58.740;50.174;2022-07-22T18:40:27;99535.78;;;25.84;53.31
55442;BME280;41313;58.740;50.174;2022-07-22T18:45:28;99537.00;;;25.60;53.58
55442;BME280;41313;58.740;50.174;2022-07-22T18:50:30;99540.28;;;25.56;53.98
55442;BME280;41313;58.740;50.174;2022-07-22T18:55:32;99532.78;;;25.51;53.87
55442;BME280;41313;58.740;50.174;2022-07-22T19:00:35;99543.53;;;25.51;53.49
55442;BME280;41313;58.740;50.174;2022-07-22T19:05:36;99543.06;;;25.41;53.51
55442;BME280;41313;58.740;50.174;2022-07-22T19:10:38;99523.47;;;25.26;53.69
55442;BME280;41313;58.740;50.174;2022-07-22T19:15:40;99536.91;;;25.26;53.82
55442;BME280;41313;58.740;50.174;2022-07-22T19:20:42;99542.28;;;25.26;53.95
55442;BME280;41313;58.740;50.174;2022-07-22T19:25:43;99543.66;;;25.21;53.79
55442;BME280;41313;58.740;50.174;2022-07-22T19:30:45;99536.94;;;25.11;53.74
55442;BME280;41313;58.740;50.174;2022-07-22T19:35:47;99509.97;;;25.04;53.18
55442;BME280;41313;58.740;50.174;2022-07-22T19:40:48;99538.69;;;25.18;53.17
55442;BME280;41313;58.740;50.174;2022-07-22T19:45:50;99533.75;;;25.07;53.20
55442;BME280;41313;58.740;50.174;2022-07-22T19:50:52;99541.31;;;24.97;53.32
55442;BME280;41313;58.740;50.174;2022-07-22T19:55:53;99525.03;;;24.84;52.96
55442;BME280;41313;58.740;50.174;2022-07-22T20:00:55;99533.28;;;24.82;53.42
55442;BME280;41313;58.740;50.174;2022-07-22T20:05:56;99545.69;;;24.83;53.17
55442;BME280;41313;58.740;50.174;2022-07-22T20:10:58;99548.56;;;24.82;52.84
55442;BME280;41313;58.740;50.174;2022-07-22T20:16:00;99555.53;;;24.76;52.76
55442;BME280;41313;58.740;50.174;2022-07-22T20:21:02;99528.50;;;24.63;52.91
55442;BME280;41313;58.740;50.174;2022-07-22T20:26:03;99522.13;;;24.49;52.57
55442;BME280;41313;58.740;50.174;2022-07-22T20:31:05;99549.28;;;24.54;52.55
55442;BME280;41313;58.740;50.174;2022-07-22T20:36:07;99553.41;;;24.56;52.26
55442;BME280;41313;58.740;50.174;2022-07-22T20:41:11;99520.78;;;24.30;52.34
55442;BME280;41313;58.740;50.174;2022-07-22T20:46:12;99545.28;;;24.50;52.21
55442;BME280;41313;58.740;50.174;2022-07-22T20:51:13;99556.81;;;24.36;52.12
55442;BME280;41313;58.740;50.174;2022-07-22T20:56:15;99553.22;;;24.28;51.99
55442;BME280;41313;58.740;50.174;2022-07-22T21:01:16;99555.41;;;24.10;52.42
55442;BME280;41313;58.740;50.174;2022-07-22T21:06:18;99552.63;;;23.88;53.03
55442;BME280;41313;58.740;50.174;2022-07-22T21:11:19;99547.88;;;23.91;52.64
55442;BME280;41313;58.740;50.174;2022-07-22T21:16:21;99557.34;;;24.01;52.00
55442;BME280;41313;58.740;50.174;2022-07-22T21:21:22;99535.56;;;23.81;51.86
55442;BME280;41313;58.740;50.174;2022-07-22T21:26:24;99542.72;;;23.66;52.68
55442;BME280;41313;58.740;50.174;2022-07-22T21:31:25;99562.38;;;23.81;52.01
55442;BME280;41313;58.740;50.174;2022-07-22T21:36:27;99565.28;;;23.80;52.17
55442;BME280;41313;58.740;50.174;2022-07-22T21:41:29;99534.38;;;23.61;51.61
55442;BME280;41313;58.740;50.174;2022-07-22T21:46:31;99562.75;;;23.78;51.54
55442;BME280;41313;58.740;50.174;2022-07-22T21:51:32;99560.13;;;23.70;51.76
55442;BME280;41313;58.740;50.174;2022-07-22T21:56:33;99559.53;;;23.60;51.81
55442;BME280;41313;58.740;50.174;2022-07-22T22:01:55;99562.56;;;23.57;51.48
55442;BME280;41313;58.740;50.174;2022-07-22T22:06:57;99545.59;;;23.41;51.33
55442;BME280;41313;58.740;50.174;2022-07-22T22:11:59;99560.31;;;23.46;51.37
55442;BME280;41313;58.740;50.174;2022-07-22T22:17:01;99546.16;;;23.29;51.48
55442;BME280;41313;58.740;50.174;2022-07-22T22:22:05;99550.69;;;23.28;51.31
55442;BME280;41313;58.740;50.174;2022-07-22T22:27:06;99578.34;;;23.29;51.88
55442;BME280;41313;58.740;50.174;2022-07-22T22:32:08;99574.19;;;23.26;51.54
55442;BME280;41313;58.740;50.174;2022-07-22T22:37:10;99577.38;;;23.22;51.82
55442;BME280;41313;58.740;50.174;2022-07-22T22:42:11;99576.59;;;23.13;51.62
55442;BME280;41313;58.740;50.174;2022-07-22T22:47:13;99581.28;;;23.11;51.85
55442;BME280;41313;58.740;50.174;2022-07-22T22:52:14;99581.53;;;23.01;51.76
55442;BME280;41313;58.740;50.174;2022-07-22T22:57:16;99586.75;;;22.94;51.90
55442;BME280;41313;58.740;50.174;2022-07-22T23:02:18;99591.50;;;22.76;51.94
55442;BME280;41313;58.740;50.174;2022-07-22T23:07:19;99608.75;;;22.65;52.51
55442;BME280;41313;58.740;50.174;2022-07-22T23:12:20;99600.59;;;22.59;52.56
55442;BME280;41313;58.740;50.174;2022-07-22T23:17:22;99598.97;;;22.33;53.36
55442;BME280;41313;58.740;50.174;2022-07-22T23:22:24;99597.50;;;22.22;53.20
55442;BME280;41313;58.740;50.174;2022-07-22T23:27:25;99587.78;;;22.13;53.40
55442;BME280;41313;58.740;50.174;2022-07-22T23:32:27;99567.22;;;21.97;53.64
55442;BME280;41313;58.740;50.174;2022-07-22T23:37:28;99597.81;;;22.03;53.78
55442;BME280;41313;58.740;50.174;2022-07-22T23:42:29;99589.13;;;22.01;53.66
55442;BME280;41313;58.740;50.174;2022-07-22T23:47:31;99586.63;;;21.99;53.70
55442;BME280;41313;58.740;50.174;2022-07-22T23:52:32;99586.13;;;21.96;53.77
55442;BME280;41313;58.740;50.174;2022-07-22T23:57:33;99592.66;;;22.01;53.74
